Strona główna
METAR-TAF:

METAR-TAF

Lotnisko :

Albert, Francja

Szerokość geograficzna: 49-58-21N, Długość geograficzna: 002-41-29E, wysokość: 111 m

Aktualna obserwacja pogody

Raport powstał 23 minut temu, godzina 09:00 UTC
Wiatr 9 kt od północno-północny wschód
Temperatura 18°C
Wilgotność 64%
Ciśnienie 1028 hPa
Widzialność 10 km lub więcej
Przerywane chmury na wysokości 2900 ft

METAR: LFAQ 120900Z AUTO 02009KT 9999 BKN029 18/11 Q1028 NOSIG

czas: 11:23 (09:23 UTC)

Prognoza

Raport powstał 1 godzina i 23 minut temu, godzina 08:00 UTC
Prognoza ważna od 12 godzina 09 UTC do 12 godzina 18 UTC
Wiatr 7 kt od północno-północny wschód
Widzialność 10 km lub więcej
Brak chmur poniżej 1500 m i brak chmur cumulonimbus

TAF: LFAQ 120800Z 1209/1218 03007KT CAVOK

Obserwacja i prognoza pogody dla ponad 4000 lotnisk (raport METAR i TAF).

Dostępne stacje oznaczono żółtymi i czerwonymi punktami na mapie.

Najedź kursorem aby zobaczyć nazwę stacji.

Kliknij aby zobaczyć obserwacje i prognozy pogody.

Aby zmienić mapę: kliknij na zielony przycisk z czarnym krzyżykiem, aby powiększyć; na zielony przycisk z myślnikiem, aby pomniejszyć; na zielone strzałki, aby przejść do map sąsiednich.


METAR-TAF: